CheckWX is a tool to help pilots better visualize weather data.  It is not intended as a substitute for an official pre-flight weather briefing.

20:54:44 UTC

LFPV TAF
Villacoublay-Vélizy (BA 107) Air Base Airport
Villacoublay/Vélizy, France
TAF LFPV 232000Z 2321/2421 02005KT 7000 BKN025 BECMG 2402/2404 3000 BR BKN008 TEMPO 2404/2407 1500 BR OVC005 BECMG 2408/2410 9999 NSW BKN020

Mar-23@
21:00 UTC

Mar-23 @ 21:00 UTC

Mar-24@
02:00 UTC

Mar-24 @ 02:00 UTC

TAF LFPV 232000Z 2321/2421 02005KT 7000 BKN025
Wind
  • 020° at 5 KTS
Cloud Levels
  • Broken at 2,500' AGL

Mar-24@
02:00 UTC

Mar-24 @ 02:00 UTC

Mar-24@
08:00 UTC

Mar-24 @ 08:00 UTC

BECMG 2402/2404 3000 BR BKN008

Becoming

Becoming Conditions expected by Sun, Mar 24, 2019 @ 04:00 UTC

Wind
  • 020° at 5 KTS
Conditions
Mist
Cloud Levels
  • Broken at 800' AGL

Mar-24@
04:00 UTC

Mar-24 @ 04:00 UTC

Mar-24@
07:00 UTC

Mar-24 @ 07:00 UTC

TEMPO 2404/2407 1500 BR OVC005

Temporary

Temporary Changes expected for less than half the time period

Conditions
Mist
Cloud Levels
  • Overcast at 500' AGL

Mar-24@
08:00 UTC

Mar-24 @ 08:00 UTC

Mar-24@
21:00 UTC

Mar-24 @ 21:00 UTC

BECMG 2408/2410 9999 NSW BKN020

Becoming

Becoming Conditions expected by Sun, Mar 24, 2019 @ 10:00 UTC

Wind
  • 020° at 5 KTS
Conditions
No significant weather
Cloud Levels
  • Broken at 2,000' AGL